Portada
METAR-TAF:

METAR-TAF

Aeroports :

Mudgee, Austràlia

latitud: 32-33-45S, longitud: 149-36-40E, altitud: 471 m

Observació

L'informe es va fer fa 1 hora i 3 minuts, a les 04:00 UTC
Vent 12 kt del Nord-Oest
Temperatura 17°C
Humitat 88%
Pressió 1013 hPa
Visibilitat: 8000 m
Núvols disperses a una alçada de 4100 ft
Cel ennuvolat a una alçada de 5800 ft
Cel ennuvolat a una alçada de 7000 ft
pluja

METAR: YMDG 200400Z AUTO 32012KT 8000 +RA SCT041 BKN058 BKN070 17/15 Q1013

Hora: 15:03 (05:03 UTC)


TAF: manca

Observacions i pronòstics meteorològics de més de 4000 aeroports (METAR i TAF).

Les estacions disponibles són els punts grocs i vermells al mapa.

Posi el ratolí al punt desitjat per veure el nom de l'estació.

Feu clic per veure les observacions i els pronòstics meteorològics.

Per canviar el mapa: feu clic els botons verds amb una creu de color negre per apropar; al botó verd amb un guió per allunyar la imatge; o en les fletxes verdes per a mapes adjacents.


METAR-TAF: